createdAt,value
2018-10-01T00:01:00.555Z,10.03
2018-10-01T00:03:28.630Z,10.01
2018-10-01T00:05:56.955Z,10.05
2018-10-01T00:08:25.008Z,10.07
2018-10-01T00:10:53.094Z,10.06
2018-10-01T00:13:21.181Z,10.04
2018-10-01T00:15:49.259Z,10.00
2018-10-01T00:18:17.504Z,10.10
2018-10-01T00:20:51.157Z,10.00
2018-10-01T00:23:19.217Z,9.99
2018-10-01T00:25:47.560Z,9.89
2018-10-01T00:28:15.677Z,9.91
2018-10-01T00:30:43.998Z,9.93
2018-10-01T00:33:12.088Z,9.89
2018-10-01T00:35:40.133Z,9.84
2018-10-01T00:38:08.272Z,9.89
2018-10-01T00:40:36.381Z,10.05
2018-10-01T00:43:04.488Z,9.94
2018-10-01T00:45:32.572Z,9.90
2018-10-01T00:48:00.639Z,9.90
2018-10-01T00:50:28.757Z,9.93
2018-10-01T00:52:56.783Z,9.97
2018-10-01T00:55:24.988Z,9.78
2018-10-01T00:57:53.150Z,9.75
2018-10-01T01:00:21.234Z,9.81
2018-10-01T01:02:49.407Z,9.82
2018-10-01T01:05:17.785Z,9.78
2018-10-01T01:07:45.990Z,9.85
2018-10-01T01:10:14.142Z,9.84
2018-10-01T01:12:42.330Z,9.80
2018-10-01T01:15:10.459Z,9.97
2018-10-01T01:17:38.541Z,9.94
2018-10-01T01:20:06.717Z,9.98
2018-10-01T01:22:35.099Z,10.04
2018-10-01T01:25:03.103Z,9.88
2018-10-01T01:27:31.106Z,9.91
2018-10-01T01:29:59.355Z,9.92
2018-10-01T01:32:27.465Z,9.91
2018-10-01T01:34:55.516Z,10.02
2018-10-01T01:37:23.584Z,10.00
2018-10-01T01:39:51.684Z,9.95
2018-10-01T01:42:19.770Z,9.92
2018-10-01T01:44:47.751Z,9.93
2018-10-01T01:47:15.823Z,10.13
2018-10-01T01:49:43.889Z,10.17
2018-10-01T01:52:11.987Z,10.02
2018-10-01T01:54:40.005Z,10.16
2018-10-01T01:57:08.061Z,10.02
2018-10-01T01:59:36.146Z,9.97
2018-10-01T02:02:04.264Z,9.97
2018-10-01T02:04:32.578Z,10.01
2018-10-01T02:07:00.627Z,10.02
2018-10-01T02:09:28.745Z,10.07
2018-10-01T02:11:57.898Z,10.11
2018-10-01T02:14:25.945Z,10.16
2018-10-01T02:16:54.054Z,10.10
2018-10-01T02:19:22.287Z,10.10
2018-10-01T02:21:50.379Z,10.10
2018-10-01T02:24:18.477Z,10.08
2018-10-01T02:26:46.595Z,10.19
2018-10-01T02:29:14.690Z,10.17
2018-10-01T02:31:42.830Z,10.14
2018-10-01T02:34:10.878Z,10.11
2018-10-01T02:36:38.971Z,10.12
2018-10-01T02:39:09.982Z,10.14
2018-10-01T02:41:38.051Z,10.11
2018-10-01T02:44:06.377Z,10.03
2018-10-01T02:46:34.460Z,10.02
2018-10-01T02:49:02.856Z,9.99
2018-10-01T02:51:31.088Z,10.09
2018-10-01T02:54:04.573Z,10.02
2018-10-01T02:56:32.736Z,10.01
2018-10-01T02:59:00.988Z,9.98
2018-10-01T03:01:29.315Z,9.97
2018-10-01T03:03:57.780Z,9.97
2018-10-01T03:06:25.927Z,9.92
2018-10-01T03:08:54.366Z,9.95
2018-10-01T03:11:22.552Z,9.97
2018-10-01T03:13:50.594Z,9.94
2018-10-01T03:16:18.756Z,9.90
2018-10-01T03:18:46.786Z,9.96
2018-10-01T03:21:14.985Z,9.96
2018-10-01T03:23:43.015Z,9.95
2018-10-01T03:26:11.236Z,10.01
2018-10-01T03:28:39.334Z,9.94
2018-10-01T03:31:07.400Z,9.94
2018-10-01T03:33:35.445Z,9.98
2018-10-01T03:36:03.599Z,9.93
2018-10-01T03:38:31.801Z,9.95
2018-10-01T03:41:02.764Z,9.95
2018-10-01T03:43:31.118Z,10.08
2018-10-01T03:46:00.186Z,10.01
2018-10-01T03:48:28.421Z,9.99
2018-10-01T03:50:56.532Z,10.02
2018-10-01T03:53:24.624Z,9.97
2018-10-01T03:55:52.771Z,9.95
2018-10-01T03:58:20.812Z,9.93
2018-10-01T04:00:48.923Z,10.07
2018-10-01T04:03:17.070Z,10.04
2018-10-01T04:05:45.118Z,9.98
2018-10-01T04:08:13.428Z,10.10
2018-10-01T04:10:41.439Z,9.95
2018-10-01T04:13:09.776Z,9.96
2018-10-01T04:15:37.915Z,9.94
2018-10-01T04:18:07.019Z,9.91
2018-10-01T04:20:35.173Z,9.90
2018-10-01T04:23:03.491Z,9.94
2018-10-01T04:25:33.257Z,9.92
2018-10-01T04:28:01.931Z,9.98
2018-10-01T04:30:30.081Z,10.03
2018-10-01T04:32:59.282Z,9.97
2018-10-01T04:35:28.341Z,9.92
2018-10-01T04:37:56.987Z,9.99
2018-10-01T04:40:25.357Z,10.04
2018-10-01T04:42:53.689Z,10.11
2018-10-01T04:45:21.828Z,10.19
2018-10-01T04:47:50.021Z,10.13
2018-10-01T04:50:18.421Z,10.19
2018-10-01T04:52:46.595Z,10.15
2018-10-01T04:55:14.695Z,10.12
2018-10-01T04:57:42.887Z,10.13
2018-10-01T05:00:11.278Z,10.12
2018-10-01T05:02:39.454Z,10.16
2018-10-01T05:05:07.622Z,10.18
2018-10-01T05:07:35.972Z,10.08
2018-10-01T05:10:04.966Z,10.08
2018-10-01T05:12:33.418Z,10.13
2018-10-01T05:15:01.746Z,10.06
2018-10-01T05:17:30.502Z,10.09
2018-10-01T05:19:58.903Z,9.97
2018-10-01T05:22:27.426Z,10.01
2018-10-01T05:24:56.123Z,10.02
2018-10-01T05:27:24.680Z,10.05
2018-10-01T05:29:53.165Z,10.07
2018-10-01T05:32:21.419Z,10.03
2018-10-01T05:34:50.323Z,10.09
2018-10-01T05:37:19.072Z,10.18
2018-10-01T05:39:47.564Z,10.38
2018-10-01T05:42:16.085Z,10.45
2018-10-01T05:44:44.469Z,10.55
2018-10-01T05:47:12.713Z,10.84
2018-10-01T05:49:40.893Z,11.27
2018-10-01T05:52:08.955Z,11.97
2018-10-01T05:54:37.364Z,12.53
2018-10-01T05:57:05.538Z,12.68
2018-10-01T05:59:33.791Z,12.42
2018-10-01T06:02:02.533Z,12.47
2018-10-01T06:04:31.987Z,12.18
2018-10-01T06:07:00.489Z,12.36
2018-10-01T06:09:28.762Z,12.74
2018-10-01T06:11:56.945Z,13.41
2018-10-01T06:14:25.153Z,13.91
2018-10-01T06:16:53.500Z,13.94
2018-10-01T06:19:21.635Z,13.66
2018-10-01T06:21:49.866Z,13.86
2018-10-01T06:24:18.184Z,13.71
2018-10-01T06:26:46.463Z,13.92
2018-10-01T06:29:14.889Z,13.47
2018-10-01T06:31:43.000Z,13.42
2018-10-01T06:34:11.138Z,13.61
2018-10-01T06:36:39.240Z,13.58
2018-10-01T06:39:09.233Z,13.72
2018-10-01T06:41:37.879Z,13.79
2018-10-01T06:44:06.252Z,13.73
2018-10-01T06:46:34.588Z,14.29
2018-10-01T06:49:02.817Z,14.67
2018-10-01T06:51:33.624Z,15.15
2018-10-01T06:54:02.479Z,14.51
2018-10-01T06:56:30.884Z,14.51
2018-10-01T06:58:58.937Z,14.89
2018-10-01T07:01:26.975Z,15.09
2018-10-01T07:03:55.178Z,15.28
2018-10-01T07:06:23.201Z,15.48
2018-10-01T07:08:51.372Z,15.64
2018-10-01T07:11:19.609Z,15.21
2018-10-01T07:13:47.620Z,15.53
2018-10-01T07:16:16.340Z,15.88
2018-10-01T07:18:44.456Z,16.02
2018-10-01T07:21:12.833Z,16.29
2018-10-01T07:23:40.993Z,15.54
2018-10-01T07:26:09.205Z,15.54
2018-10-01T07:28:37.383Z,16.04
2018-10-01T07:31:05.548Z,16.03
2018-10-01T07:33:33.746Z,16.12
2018-10-01T07:36:02.007Z,16.28
2018-10-01T07:38:30.396Z,16.85
2018-10-01T07:40:58.477Z,16.88
2018-10-01T07:43:26.703Z,16.96
2018-10-01T07:45:54.778Z,16.19
2018-10-01T07:48:22.929Z,16.73
2018-10-01T07:50:51.292Z,16.95
2018-10-01T07:53:19.618Z,17.13
2018-10-01T07:55:47.957Z,17.75
2018-10-01T07:58:16.258Z,17.61
2018-10-01T08:00:44.388Z,17.20
2018-10-01T08:03:12.531Z,17.58
2018-10-01T08:05:40.836Z,17.91
2018-10-01T08:08:09.351Z,17.40
2018-10-01T08:10:37.576Z,17.02
2018-10-01T08:13:05.878Z,16.73
2018-10-01T08:15:34.280Z,17.12
2018-10-01T08:18:02.792Z,18.05
2018-10-01T08:20:32.015Z,18.82
2018-10-01T08:23:00.395Z,19.08
2018-10-01T08:25:28.831Z,19.04
2018-10-01T08:27:57.334Z,18.82
2018-10-01T08:30:25.474Z,18.10
2018-10-01T08:32:53.849Z,17.84
2018-10-01T08:35:22.269Z,17.43
2018-10-01T08:37:50.716Z,17.40
2018-10-01T08:40:19.048Z,17.27
2018-10-01T08:42:47.426Z,17.85
2018-10-01T08:45:15.673Z,17.76
2018-10-01T08:47:45.182Z,17.85
2018-10-01T08:50:20.708Z,18.38
2018-10-01T08:53:11.645Z,18.03
2018-10-01T08:55:40.054Z,17.96
2018-10-01T08:58:08.779Z,18.64
2018-10-01T09:00:37.636Z,19.49
2018-10-01T09:03:08.737Z,19.27
2018-10-01T09:05:37.083Z,19.36
2018-10-01T09:08:05.949Z,19.51
2018-10-01T09:10:34.599Z,18.85
2018-10-01T09:13:03.565Z,19.10
2018-10-01T09:15:31.980Z,19.76
2018-10-01T09:18:00.274Z,20.17
2018-10-01T09:20:28.611Z,20.31
2018-10-01T09:22:56.994Z,19.43
2018-10-01T09:25:25.208Z,19.14
2018-10-01T09:27:53.389Z,20.12
2018-10-01T09:30:21.602Z,20.27
2018-10-01T09:32:49.772Z,20.55
2018-10-01T09:35:17.939Z,20.75
2018-10-01T09:37:46.101Z,20.35
2018-10-01T09:40:14.327Z,19.88
2018-10-01T09:42:42.475Z,19.22
2018-10-01T09:45:10.617Z,19.20
2018-10-01T09:47:39.917Z,19.02
2018-10-01T09:50:08.177Z,18.58
2018-10-01T09:52:36.786Z,19.27
2018-10-01T09:55:05.160Z,19.35
2018-10-01T09:57:33.740Z,19.55
2018-10-01T10:00:02.830Z,19.70
2018-10-01T10:02:31.217Z,19.71
2018-10-01T10:04:59.476Z,20.00
2018-10-01T10:07:27.579Z,20.06
2018-10-01T10:09:55.827Z,20.53
2018-10-01T10:12:24.219Z,19.71
2018-10-01T10:14:52.315Z,20.01
2018-10-01T10:17:20.587Z,20.18
2018-10-01T10:19:49.221Z,20.09
2018-10-01T10:22:17.395Z,20.01
2018-10-01T10:24:45.500Z,20.23
2018-10-01T10:27:14.018Z,20.48
2018-10-01T10:29:42.232Z,20.78
2018-10-01T10:32:10.701Z,20.87
2018-10-01T10:34:38.911Z,20.42
2018-10-01T10:37:07.424Z,20.17
2018-10-01T10:39:35.841Z,20.86
2018-10-01T10:42:03.883Z,21.42
2018-10-01T10:44:33.239Z,20.45
2018-10-01T10:47:01.487Z,20.24
2018-10-01T10:49:29.876Z,20.12
2018-10-01T10:51:58.063Z,20.43
2018-10-01T10:54:26.289Z,20.76
2018-10-01T10:56:54.504Z,20.86
2018-10-01T10:59:22.680Z,20.98
2018-10-01T11:01:51.429Z,21.10
2018-10-01T11:04:19.855Z,20.86
2018-10-01T11:06:48.208Z,21.29
2018-10-01T11:09:16.586Z,21.63
2018-10-01T11:11:44.845Z,21.67
2018-10-01T11:14:13.787Z,21.55
2018-10-01T11:16:42.305Z,21.71
2018-10-01T11:19:11.000Z,21.93
2018-10-01T11:21:39.357Z,22.22
2018-10-01T11:24:07.415Z,22.45
2018-10-01T11:26:35.707Z,22.34
2018-10-01T11:29:04.197Z,21.63
2018-10-01T11:31:32.504Z,21.13
2018-10-01T11:34:00.656Z,21.03
2018-10-01T11:36:28.986Z,20.88
2018-10-01T11:38:57.206Z,21.09
2018-10-01T11:41:25.320Z,21.18
2018-10-01T11:43:53.860Z,21.30
2018-10-01T11:46:22.175Z,21.58
2018-10-01T11:48:51.248Z,21.49
2018-10-01T11:51:19.654Z,21.47
2018-10-01T11:53:48.256Z,21.67
2018-10-01T11:56:18.685Z,21.29
2018-10-01T11:58:46.760Z,21.01
2018-10-01T12:01:14.927Z,21.13
2018-10-01T12:03:43.155Z,21.21
2018-10-01T12:06:18.613Z,21.06
2018-10-01T12:08:47.026Z,21.30
2018-10-01T12:11:15.220Z,21.43
2018-10-01T12:13:43.372Z,21.30
2018-10-01T12:16:11.913Z,21.58
2018-10-01T12:18:40.078Z,21.96
2018-10-01T12:21:08.264Z,22.31
2018-10-01T12:23:36.332Z,22.71
2018-10-01T12:26:04.488Z,22.74
2018-10-01T12:28:32.683Z,22.49
2018-10-01T12:31:01.141Z,22.56
2018-10-01T12:33:40.095Z,22.59
2018-10-01T12:36:09.347Z,22.72
2018-10-01T12:38:38.962Z,22.55
2018-10-01T12:41:07.462Z,22.53
2018-10-01T12:43:56.755Z,22.27
2018-10-01T12:46:26.288Z,22.50
2018-10-01T12:48:54.433Z,22.08
2018-10-01T12:51:22.681Z,21.58
2018-10-01T12:53:52.431Z,21.48
2018-10-01T12:56:20.940Z,21.47
2018-10-01T12:58:49.063Z,21.52
2018-10-01T13:01:17.505Z,21.44
2018-10-01T13:03:45.680Z,21.37
2018-10-01T13:06:14.039Z,21.37
2018-10-01T13:08:42.167Z,21.24
2018-10-01T13:11:11.099Z,21.34
2018-10-01T13:13:39.500Z,21.51
2018-10-01T13:16:07.748Z,21.53
2018-10-01T13:18:36.852Z,21.62
2018-10-01T13:21:06.583Z,21.77
2018-10-01T13:23:35.545Z,22.03
2018-10-01T13:26:04.277Z,22.20
2018-10-01T13:28:32.343Z,22.30
2018-10-01T13:31:00.769Z,22.16
2018-10-01T13:33:28.980Z,21.68
2018-10-01T13:35:57.107Z,21.49
2018-10-01T13:38:25.265Z,21.64
2018-10-01T13:40:53.594Z,21.97
2018-10-01T13:43:21.954Z,21.83
2018-10-01T13:45:50.740Z,22.03
2018-10-01T13:48:19.809Z,21.90
2018-10-01T13:50:48.080Z,21.78
2018-10-01T13:53:16.239Z,21.80
2018-10-01T13:55:44.343Z,21.90
2018-10-01T13:58:12.751Z,21.89
2018-10-01T14:00:40.964Z,21.57
2018-10-01T14:03:09.101Z,21.66
2018-10-01T14:05:37.414Z,21.43
2018-10-01T14:08:06.366Z,21.48
2018-10-01T14:10:34.463Z,21.35
2018-10-01T14:13:02.763Z,21.13
2018-10-01T14:15:31.029Z,21.24
2018-10-01T14:17:59.999Z,21.13
2018-10-01T14:20:30.015Z,20.97
2018-10-01T14:23:00.894Z,21.00
2018-10-01T14:25:30.264Z,21.13
2018-10-01T14:28:00.562Z,21.00
2018-10-01T14:30:29.059Z,21.01
2018-10-01T14:32:57.280Z,20.94
2018-10-01T14:35:25.421Z,20.81
2018-10-01T14:37:53.647Z,20.76
2018-10-01T14:40:21.861Z,20.62
2018-10-01T14:42:50.126Z,20.57
2018-10-01T14:45:18.308Z,20.63
2018-10-01T14:47:46.555Z,20.65
2018-10-01T14:50:14.945Z,20.61
2018-10-01T14:52:43.539Z,20.48
2018-10-01T14:55:11.920Z,20.34
2018-10-01T14:57:40.134Z,20.32
2018-10-01T15:00:08.486Z,20.33
2018-10-01T15:02:36.903Z,20.00
2018-10-01T15:05:06.018Z,19.85
2018-10-01T15:07:34.381Z,19.75
2018-10-01T15:10:02.647Z,19.66
2018-10-01T15:12:30.991Z,19.58
2018-10-01T15:14:59.214Z,19.45
2018-10-01T15:17:27.608Z,19.36
2018-10-01T15:19:55.728Z,19.38
2018-10-01T15:22:25.120Z,19.25
2018-10-01T15:24:53.474Z,18.81
2018-10-01T15:27:21.789Z,18.57
2018-10-01T15:29:50.148Z,18.39
2018-10-01T15:32:18.779Z,18.24
2018-10-01T15:34:46.897Z,18.09
2018-10-01T15:37:15.046Z,18.07
2018-10-01T15:39:43.352Z,17.73
2018-10-01T15:42:11.423Z,17.58
2018-10-01T15:44:39.610Z,17.53
2018-10-01T15:47:07.932Z,17.47
2018-10-01T15:49:36.134Z,17.26
2018-10-01T15:52:04.370Z,17.18
2018-10-01T15:54:32.632Z,16.78
2018-10-01T15:57:01.142Z,16.73
2018-10-01T15:59:29.269Z,16.78
2018-10-01T16:01:57.391Z,16.85
2018-10-01T16:04:25.557Z,16.78
2018-10-01T16:06:53.990Z,16.49
2018-10-01T16:09:23.165Z,16.44
2018-10-01T16:11:51.324Z,16.57
2018-10-01T16:14:19.606Z,16.50
2018-10-01T16:16:48.092Z,16.27
2018-10-01T16:19:16.372Z,16.10
2018-10-01T16:21:44.578Z,16.03
2018-10-01T16:24:12.893Z,15.84
2018-10-01T16:26:41.175Z,15.80
2018-10-01T16:29:09.670Z,15.68
2018-10-01T16:31:38.174Z,15.53
2018-10-01T16:34:07.431Z,15.39
2018-10-01T16:36:37.703Z,15.09
2018-10-01T16:39:11.156Z,15.10
2018-10-01T16:41:39.809Z,15.19
2018-10-01T16:44:08.038Z,15.29
2018-10-01T16:46:36.484Z,15.05
2018-10-01T16:49:06.589Z,14.88
2018-10-01T16:51:36.603Z,14.73
2018-10-01T16:54:05.052Z,14.70
2018-10-01T16:56:33.386Z,14.80
2018-10-01T16:59:01.766Z,14.78
2018-10-01T17:01:29.965Z,14.79
2018-10-01T17:03:58.209Z,14.95
2018-10-01T17:06:30.584Z,14.86
2018-10-01T17:08:59.967Z,14.84
2018-10-01T17:11:32.061Z,14.79
2018-10-01T17:14:00.797Z,14.76
2018-10-01T17:16:29.557Z,14.59
2018-10-01T17:18:58.696Z,14.56
2018-10-01T17:21:27.012Z,14.67
2018-10-01T17:23:55.546Z,14.72
2018-10-01T17:26:23.923Z,14.84
2018-10-01T17:28:52.446Z,15.06
2018-10-01T17:31:20.932Z,14.83
2018-10-01T17:33:49.398Z,14.69
2018-10-01T17:36:17.862Z,14.59
2018-10-01T17:38:46.152Z,14.49
2018-10-01T17:41:14.420Z,14.43
2018-10-01T17:43:45.964Z,14.39
2018-10-01T17:46:14.396Z,14.49
2018-10-01T17:48:42.621Z,14.41
2018-10-01T17:51:11.063Z,14.35
2018-10-01T17:53:39.287Z,14.32
2018-10-01T17:56:07.569Z,14.23
2018-10-01T17:58:35.836Z,14.16
2018-10-01T18:01:04.179Z,14.09
2018-10-01T18:03:32.674Z,14.08
2018-10-01T18:06:01.029Z,14.08
2018-10-01T18:08:29.411Z,14.02
2018-10-01T18:10:57.614Z,13.99
2018-10-01T18:13:26.107Z,13.91
2018-10-01T18:15:54.406Z,13.91
2018-10-01T18:18:22.827Z,13.88
2018-10-01T18:20:51.235Z,13.89
2018-10-01T18:23:19.513Z,13.93
2018-10-01T18:25:47.818Z,14.00
2018-10-01T18:28:16.002Z,14.17
2018-10-01T18:30:44.206Z,14.11
2018-10-01T18:33:12.348Z,14.17
2018-10-01T18:35:40.511Z,14.12
2018-10-01T18:38:08.640Z,14.06
2018-10-01T18:40:36.832Z,13.96
2018-10-01T18:43:05.169Z,13.93
2018-10-01T18:45:33.990Z,13.95
2018-10-01T18:48:02.240Z,13.90
2018-10-01T18:50:31.775Z,13.92
2018-10-01T18:52:59.956Z,13.86
2018-10-01T18:55:28.241Z,13.85
2018-10-01T18:57:56.343Z,13.78
2018-10-01T19:00:24.554Z,13.71
2018-10-01T19:02:52.806Z,13.63
2018-10-01T19:05:20.956Z,13.56
2018-10-01T19:07:49.112Z,13.45
2018-10-01T19:10:17.350Z,13.44
2018-10-01T19:12:45.594Z,13.31
2018-10-01T19:15:13.871Z,13.20
2018-10-01T19:17:42.372Z,13.13
2018-10-01T19:20:10.599Z,13.06
2018-10-01T19:22:38.836Z,13.08
2018-10-01T19:25:07.028Z,13.12
2018-10-01T19:27:35.199Z,13.02
2018-10-01T19:30:03.990Z,13.04
2018-10-01T19:32:32.332Z,12.94
2018-10-01T19:35:00.617Z,12.92
2018-10-01T19:37:29.034Z,12.84
2018-10-01T19:39:57.152Z,12.84
2018-10-01T19:42:25.375Z,12.73
2018-10-01T19:44:53.520Z,12.70
2018-10-01T19:47:21.880Z,12.70
2018-10-01T19:49:50.266Z,12.65
2018-10-01T19:52:18.544Z,12.60
2018-10-01T19:54:47.364Z,12.55
2018-10-01T19:57:15.664Z,12.39
2018-10-01T19:59:43.829Z,12.34
2018-10-01T20:02:12.030Z,12.33
2018-10-01T20:04:40.202Z,12.29
2018-10-01T20:07:08.292Z,12.22
2018-10-01T20:09:36.600Z,12.17
2018-10-01T20:12:05.112Z,12.12
2018-10-01T20:14:33.185Z,12.07
2018-10-01T20:17:01.523Z,12.07
2018-10-01T20:19:29.696Z,12.01
2018-10-01T20:21:57.893Z,11.94
2018-10-01T20:24:26.122Z,11.89
2018-10-01T20:26:54.191Z,11.82
2018-10-01T20:29:22.458Z,11.75
2018-10-01T20:31:50.460Z,11.63
2018-10-01T20:34:18.850Z,11.60
2018-10-01T20:36:46.965Z,11.48
2018-10-01T20:39:15.223Z,11.40
2018-10-01T20:41:43.350Z,11.42
2018-10-01T20:44:11.537Z,11.37
2018-10-01T20:46:39.883Z,11.33
2018-10-01T20:49:07.956Z,11.31
2018-10-01T20:51:36.050Z,11.31
2018-10-01T20:54:04.267Z,11.34
2018-10-01T20:56:32.410Z,11.29
2018-10-01T20:59:00.787Z,11.24
2018-10-01T21:01:28.846Z,11.23
2018-10-01T21:03:56.918Z,11.22
2018-10-01T21:06:25.129Z,11.22
2018-10-01T21:08:53.235Z,11.20
2018-10-01T21:11:21.599Z,11.17
2018-10-01T21:13:49.773Z,11.12
2018-10-01T21:16:18.861Z,11.08
2018-10-01T21:18:46.998Z,11.07
2018-10-01T21:21:15.188Z,11.05
2018-10-01T21:23:43.317Z,11.00
2018-10-01T21:26:11.500Z,10.94
2018-10-01T21:28:39.539Z,10.93
2018-10-01T21:31:07.644Z,10.94
2018-10-01T21:33:35.827Z,11.01
2018-10-01T21:36:03.891Z,10.98
2018-10-01T21:38:32.089Z,11.07
2018-10-01T21:41:00.252Z,11.13
2018-10-01T21:43:28.384Z,11.19
2018-10-01T21:45:56.509Z,11.19
2018-10-01T21:48:24.608Z,11.27
2018-10-01T21:50:52.778Z,11.48
2018-10-01T21:53:20.872Z,11.49
2018-10-01T21:55:48.911Z,11.55
2018-10-01T21:58:16.966Z,11.54
2018-10-01T22:00:50.600Z,11.51
2018-10-01T22:03:18.797Z,11.52
2018-10-01T22:05:46.850Z,11.52
2018-10-01T22:08:14.943Z,11.56
2018-10-01T22:10:43.117Z,11.59
2018-10-01T22:13:11.402Z,11.61
2018-10-01T22:15:46.637Z,11.58
2018-10-01T22:18:17.221Z,11.53
2018-10-01T22:20:45.436Z,11.52
2018-10-01T22:23:14.038Z,11.49
2018-10-01T22:25:42.120Z,11.47
2018-10-01T22:28:10.617Z,11.42
2018-10-01T22:30:39.570Z,11.37
2018-10-01T22:33:07.674Z,11.35
2018-10-01T22:35:35.897Z,11.32
2018-10-01T22:38:04.000Z,11.35
2018-10-01T22:40:32.163Z,11.32
2018-10-01T22:43:00.520Z,11.35
2018-10-01T22:45:28.744Z,11.32
2018-10-01T22:47:56.896Z,11.36
2018-10-01T22:50:24.942Z,11.44
2018-10-01T22:52:53.056Z,11.48
2018-10-01T22:55:21.206Z,11.49
2018-10-01T22:57:49.310Z,11.46
2018-10-01T23:00:17.420Z,11.47
2018-10-01T23:02:45.537Z,11.47
2018-10-01T23:05:13.594Z,11.39
2018-10-01T23:07:41.663Z,11.33
2018-10-01T23:10:09.834Z,11.20
2018-10-01T23:12:37.910Z,11.14
2018-10-01T23:15:06.614Z,11.07
2018-10-01T23:17:34.978Z,11.03
2018-10-01T23:20:03.325Z,11.03
2018-10-01T23:22:31.416Z,11.00
2018-10-01T23:24:59.544Z,10.97
2018-10-01T23:27:27.595Z,10.98
2018-10-01T23:29:55.651Z,10.98
2018-10-01T23:32:23.809Z,10.96
2018-10-01T23:34:51.888Z,10.93
2018-10-01T23:37:20.025Z,10.88
2018-10-01T23:39:48.069Z,10.90
2018-10-01T23:42:16.108Z,10.88
2018-10-01T23:44:44.169Z,10.84
2018-10-01T23:47:12.281Z,10.76
2018-10-01T23:49:40.428Z,10.73
2018-10-01T23:52:08.487Z,10.72
2018-10-01T23:54:36.543Z,10.70
2018-10-01T23:57:04.662Z,10.59
2018-10-01T23:59:32.781Z,10.55
